createdAt,value
2019-04-30T00:01:14.309Z,54.93
2019-04-30T00:03:55.708Z,52.03
2019-04-30T00:06:27.437Z,57.40
2019-04-30T00:08:57.583Z,51.27
2019-04-30T00:11:26.492Z,44.30
2019-04-30T00:13:58.841Z,40.00
2019-04-30T00:16:31.071Z,40.33
2019-04-30T00:19:00.755Z,37.93
2019-04-30T00:21:29.123Z,39.97
2019-04-30T00:24:00.910Z,31.43
2019-04-30T00:26:29.787Z,36.83
2019-04-30T00:28:58.957Z,37.43
2019-04-30T00:31:28.198Z,32.63
2019-04-30T00:34:01.273Z,33.40
2019-04-30T00:36:34.082Z,29.37
2019-04-30T00:38:59.551Z,34.50
2019-04-30T00:41:30.240Z,30.93
2019-04-30T00:44:00.285Z,32.37
2019-04-30T00:46:29.945Z,33.77
2019-04-30T00:49:08.785Z,26.30
2019-04-30T00:51:31.041Z,28.43
2019-04-30T00:54:00.429Z,26.13
2019-04-30T00:56:30.031Z,32.57
2019-04-30T00:59:02.664Z,31.63
2019-04-30T01:02:06.079Z,27.57
2019-04-30T01:04:45.013Z,27.63
2019-04-30T01:07:15.560Z,29.07
2019-04-30T01:09:49.535Z,28.63
2019-04-30T01:12:17.338Z,32.97
2019-04-30T01:14:47.069Z,28.77
2019-04-30T01:17:16.321Z,31.50
2019-04-30T01:19:50.499Z,34.00
2019-04-30T01:22:21.284Z,32.63
2019-04-30T01:24:49.644Z,27.87
2019-04-30T01:27:19.377Z,31.57
2019-04-30T01:29:48.765Z,30.63
2019-04-30T01:32:20.927Z,31.77
2019-04-30T01:34:53.656Z,31.93
2019-04-30T01:37:28.256Z,30.97
2019-04-30T01:39:52.245Z,31.47
2019-04-30T01:42:21.589Z,28.90
2019-04-30T01:44:53.764Z,30.27
2019-04-30T01:47:27.852Z,28.60
2019-04-30T01:49:55.834Z,31.80
2019-04-30T01:52:23.980Z,29.20
2019-04-30T01:54:53.284Z,28.67
2019-04-30T01:57:38.972Z,32.00
2019-04-30T02:00:29.249Z,27.60
2019-04-30T02:02:59.310Z,28.10
2019-04-30T02:05:28.826Z,26.63
2019-04-30T02:07:58.488Z,27.50
2019-04-30T02:10:28.566Z,32.03
2019-04-30T02:12:59.075Z,29.87
2019-04-30T02:15:29.302Z,24.60
2019-04-30T02:17:58.989Z,26.20
2019-04-30T02:20:28.802Z,26.93
2019-04-30T02:22:58.644Z,23.93
2019-04-30T02:25:29.564Z,23.83
2019-04-30T02:27:59.349Z,24.50
2019-04-30T02:30:30.891Z,23.73
2019-04-30T02:33:00.833Z,25.13
2019-04-30T02:35:40.717Z,23.77
2019-04-30T02:38:31.706Z,24.63
2019-04-30T02:41:02.571Z,21.43
2019-04-30T02:43:33.692Z,30.83
2019-04-30T02:46:04.874Z,24.17
2019-04-30T02:48:39.311Z,26.17
2019-04-30T02:51:10.107Z,27.60
2019-04-30T02:54:23.998Z,24.57
2019-04-30T02:57:13.250Z,24.60
2019-04-30T03:00:00.738Z,24.57
2019-04-30T03:02:31.163Z,27.40
2019-04-30T03:05:00.644Z,26.30
2019-04-30T03:07:30.013Z,25.20
2019-04-30T03:10:00.057Z,24.10
2019-04-30T03:12:33.379Z,22.97
2019-04-30T03:15:01.131Z,24.93
2019-04-30T03:17:55.243Z,25.37
2019-04-30T03:20:42.399Z,25.70
2019-04-30T03:23:11.584Z,23.23
2019-04-30T03:25:40.841Z,23.20
2019-04-30T03:28:10.344Z,21.03
2019-04-30T03:30:42.101Z,27.53
2019-04-30T03:33:12.673Z,21.00
2019-04-30T03:35:47.485Z,18.77
2019-04-30T03:38:12.376Z,22.07
2019-04-30T03:40:42.007Z,19.70
2019-04-30T03:43:11.244Z,16.70
2019-04-30T03:45:40.783Z,17.10
2019-04-30T03:48:10.737Z,17.30
2019-04-30T03:50:52.077Z,20.47
2019-04-30T03:53:11.226Z,18.93
2019-04-30T03:55:40.476Z,19.00
2019-04-30T03:58:09.786Z,20.03
2019-04-30T04:00:52.379Z,20.03
2019-04-30T04:03:21.698Z,17.13
2019-04-30T04:05:56.273Z,18.60
2019-04-30T04:08:36.315Z,17.50
2019-04-30T04:11:14.383Z,19.17
2019-04-30T04:13:43.986Z,17.80
2019-04-30T04:16:13.250Z,18.60
2019-04-30T04:18:43.344Z,17.07
2019-04-30T04:21:16.952Z,17.40
2019-04-30T04:23:44.706Z,16.47
2019-04-30T04:26:14.473Z,18.43
2019-04-30T04:28:43.835Z,16.73
2019-04-30T04:31:13.234Z,19.13
2019-04-30T04:33:42.769Z,15.97
2019-04-30T04:36:12.070Z,18.60
2019-04-30T04:38:41.712Z,15.40
2019-04-30T04:41:11.406Z,16.33
2019-04-30T04:43:40.784Z,21.60
2019-04-30T04:46:10.837Z,16.90
2019-04-30T04:48:40.418Z,15.97
2019-04-30T04:51:26.790Z,20.23
2019-04-30T04:53:40.501Z,16.40
2019-04-30T04:56:10.207Z,15.73
2019-04-30T04:58:40.218Z,17.40
2019-04-30T05:01:11.951Z,19.77
2019-04-30T05:03:41.454Z,19.47
2019-04-30T05:06:11.880Z,17.43
2019-04-30T05:08:41.674Z,19.30
2019-04-30T05:11:10.938Z,16.23
2019-04-30T05:13:40.237Z,22.37
2019-04-30T05:16:09.615Z,16.13
2019-04-30T05:18:39.502Z,18.07
2019-04-30T05:21:09.089Z,21.87
2019-04-30T05:23:41.126Z,18.97
2019-04-30T05:26:11.110Z,18.40
2019-04-30T05:28:41.097Z,20.77
2019-04-30T05:31:10.265Z,16.83
2019-04-30T05:33:40.157Z,27.03
2019-04-30T05:36:09.475Z,25.70
2019-04-30T05:38:39.248Z,22.10
2019-04-30T05:41:09.332Z,25.87
2019-04-30T05:43:39.080Z,20.10
2019-04-30T05:46:10.835Z,29.57
2019-04-30T05:48:39.777Z,20.10
2019-04-30T05:51:10.183Z,25.50
2019-04-30T05:53:39.800Z,28.73
2019-04-30T05:56:09.543Z,31.00
2019-04-30T05:58:39.724Z,28.53
2019-04-30T06:01:09.903Z,33.43
2019-04-30T06:03:39.515Z,29.73
2019-04-30T06:06:11.256Z,31.63
2019-04-30T06:08:49.494Z,34.27
2019-04-30T06:11:39.256Z,23.47
2019-04-30T06:14:28.648Z,23.27
2019-04-30T06:17:16.007Z,21.77
2019-04-30T06:19:45.193Z,26.13
2019-04-30T06:22:14.553Z,22.80
2019-04-30T06:24:44.212Z,25.53
2019-04-30T06:27:13.827Z,19.73
2019-04-30T06:29:43.669Z,26.53
2019-04-30T06:32:32.001Z,22.77
2019-04-30T06:35:01.213Z,22.47
2019-04-30T06:37:33.463Z,21.40
2019-04-30T06:40:02.707Z,24.07
2019-04-30T06:42:31.945Z,27.83
2019-04-30T06:45:01.259Z,22.93
2019-04-30T06:47:33.201Z,22.13
2019-04-30T06:50:02.485Z,22.83
2019-04-30T06:52:31.769Z,22.43
2019-04-30T06:55:00.921Z,24.03
2019-04-30T06:57:30.541Z,24.37
2019-04-30T07:00:00.079Z,21.10
2019-04-30T07:02:30.892Z,16.97
2019-04-30T07:05:00.258Z,21.70
2019-04-30T07:07:38.402Z,18.37
2019-04-30T07:10:17.960Z,16.50
2019-04-30T07:13:01.996Z,18.47
2019-04-30T07:15:31.280Z,19.13
2019-04-30T07:18:00.528Z,16.17
2019-04-30T07:20:33.763Z,16.73
2019-04-30T07:25:32.098Z,16.17
2019-04-30T07:28:01.608Z,15.43
2019-04-30T07:30:31.066Z,13.43
2019-04-30T07:33:00.767Z,12.13
2019-04-30T07:35:29.942Z,14.13
2019-04-30T07:38:04.553Z,11.77
2019-04-30T07:40:30.397Z,12.33
2019-04-30T07:42:59.635Z,12.63
2019-04-30T07:45:31.972Z,11.13
2019-04-30T07:48:01.011Z,16.97
2019-04-30T07:50:31.598Z,13.87
2019-04-30T07:53:05.614Z,11.40
2019-04-30T07:55:32.642Z,16.50
2019-04-30T07:58:01.918Z,14.47
2019-04-30T08:00:31.389Z,12.83
2019-04-30T08:03:11.294Z,11.47
2019-04-30T08:05:43.414Z,13.20
2019-04-30T08:08:21.104Z,15.80
2019-04-30T08:09:34.154Z,19.67
2019-04-30T08:10:43.890Z,14.23
2019-04-30T08:13:15.221Z,10.50
2019-04-30T08:15:43.972Z,11.97
2019-04-30T08:18:13.210Z,10.73
2019-04-30T08:20:42.502Z,13.53
2019-04-30T08:23:20.346Z,14.47
2019-04-30T08:25:42.653Z,13.53
2019-04-30T08:28:11.847Z,12.90
2019-04-30T08:30:41.095Z,9.87
2019-04-30T08:33:10.448Z,13.73
2019-04-30T08:35:39.864Z,11.87
2019-04-30T08:38:10.819Z,14.60
2019-04-30T08:40:52.820Z,14.63
2019-04-30T08:43:11.231Z,14.20
2019-04-30T08:45:40.677Z,15.17
2019-04-30T08:48:10.152Z,14.53
2019-04-30T08:50:40.067Z,19.80
2019-04-30T08:53:26.597Z,14.33
2019-04-30T08:55:40.968Z,13.27
2019-04-30T08:58:20.574Z,13.13
2019-04-30T09:00:58.796Z,14.47
2019-04-30T09:03:32.569Z,15.03
2019-04-30T09:06:12.843Z,13.67
2019-04-30T09:08:56.328Z,12.30
2019-04-30T09:11:38.521Z,14.83
2019-04-30T09:14:04.948Z,12.80
2019-04-30T09:16:42.185Z,12.23
2019-04-30T09:19:11.592Z,12.13
2019-04-30T09:21:40.777Z,14.53
2019-04-30T09:24:10.400Z,12.80
2019-04-30T09:26:40.020Z,13.97
2019-04-30T09:29:09.529Z,15.27
2019-04-30T09:31:40.771Z,12.43
2019-04-30T09:34:16.995Z,12.00
2019-04-30T09:36:40.970Z,13.43
2019-04-30T09:39:10.395Z,12.37
2019-04-30T09:41:41.166Z,15.10
2019-04-30T09:44:10.700Z,12.90
2019-04-30T09:46:39.961Z,14.90
2019-04-30T09:49:09.837Z,10.73
2019-04-30T09:51:41.376Z,10.97
2019-04-30T09:54:12.788Z,16.30
2019-04-30T09:56:41.982Z,12.47
2019-04-30T09:59:11.662Z,16.87
2019-04-30T10:01:41.696Z,15.83
2019-04-30T10:04:11.555Z,15.47
2019-04-30T10:06:41.249Z,15.53
2019-04-30T10:09:12.445Z,23.17
2019-04-30T10:12:10.015Z,17.67
2019-04-30T10:14:40.962Z,18.47
2019-04-30T10:17:25.977Z,19.70
2019-04-30T10:19:55.556Z,19.73
2019-04-30T10:22:24.719Z,26.07
2019-04-30T10:24:54.043Z,27.43
2019-04-30T10:27:24.732Z,28.53
2019-04-30T10:29:54.707Z,26.77
2019-04-30T10:32:23.989Z,24.03
2019-04-30T10:34:53.739Z,28.50
2019-04-30T10:37:23.694Z,24.83
2019-04-30T10:39:52.869Z,23.17
2019-04-30T10:42:22.123Z,23.40
2019-04-30T10:44:51.486Z,22.50
2019-04-30T10:47:20.987Z,25.70
2019-04-30T10:49:50.163Z,26.93
2019-04-30T10:52:19.462Z,25.73
2019-04-30T10:54:49.609Z,30.93
2019-04-30T10:57:19.103Z,27.50
2019-04-30T10:59:48.754Z,30.67
2019-04-30T11:02:18.144Z,30.30
2019-04-30T11:04:47.394Z,31.57
2019-04-30T11:07:18.540Z,31.57
2019-04-30T11:09:49.330Z,28.77
2019-04-30T11:12:19.337Z,27.73
2019-04-30T11:14:48.773Z,29.90
2019-04-30T11:17:19.750Z,30.47
2019-04-30T11:19:49.309Z,30.50
2019-04-30T11:22:19.343Z,28.17
2019-04-30T11:24:58.999Z,33.13
2019-04-30T11:27:20.978Z,29.50
2019-04-30T11:29:50.992Z,26.93
2019-04-30T11:32:23.000Z,30.07
2019-04-30T11:34:52.441Z,25.10
2019-04-30T11:37:21.641Z,26.07
2019-04-30T11:39:51.185Z,25.53
2019-04-30T11:42:21.037Z,23.53
2019-04-30T11:44:50.296Z,21.17
2019-04-30T11:47:27.309Z,17.53
2019-04-30T11:49:56.914Z,20.03
2019-04-30T11:52:26.168Z,20.03
2019-04-30T11:54:55.361Z,21.23
2019-04-30T11:57:24.555Z,18.53
2019-04-30T11:59:53.711Z,29.67
2019-04-30T12:02:54.391Z,30.70
2019-04-30T12:05:25.292Z,33.43
2019-04-30T12:08:07.025Z,36.23
2019-04-30T12:11:01.278Z,34.30
2019-04-30T12:13:31.995Z,36.17
2019-04-30T12:16:02.162Z,34.10
2019-04-30T12:18:31.380Z,34.33
2019-04-30T12:21:01.003Z,32.63
2019-04-30T12:23:31.725Z,26.20
2019-04-30T12:26:02.919Z,32.10
2019-04-30T12:28:32.315Z,26.13
2019-04-30T12:31:01.484Z,30.07
2019-04-30T12:33:31.043Z,26.63
2019-04-30T12:36:00.582Z,26.13
2019-04-30T12:38:30.075Z,24.67
2019-04-30T12:40:59.271Z,22.33
2019-04-30T12:43:28.862Z,21.27
2019-04-30T12:46:03.326Z,22.80
2019-04-30T12:48:44.037Z,24.30
2019-04-30T12:51:22.803Z,24.20
2019-04-30T12:53:56.193Z,25.80
2019-04-30T12:56:32.036Z,26.07
2019-04-30T12:59:01.579Z,21.50
2019-04-30T13:01:32.167Z,24.43
2019-04-30T13:04:01.791Z,24.93
2019-04-30T13:06:31.809Z,27.13
2019-04-30T13:09:02.125Z,25.07
2019-04-30T13:11:32.460Z,33.37
2019-04-30T13:14:02.414Z,25.93
2019-04-30T13:16:32.384Z,25.77
2019-04-30T13:19:01.544Z,30.27
2019-04-30T13:21:30.797Z,25.23
2019-04-30T13:24:00.775Z,29.37
2019-04-30T13:26:29.978Z,30.67
2019-04-30T13:29:10.073Z,33.83
2019-04-30T13:31:40.337Z,29.13
2019-04-30T13:34:29.840Z,33.67
2019-04-30T13:36:59.423Z,31.13
2019-04-30T13:39:34.166Z,28.17
2019-04-30T13:42:17.563Z,27.77
2019-04-30T13:44:42.494Z,31.53
2019-04-30T13:47:12.211Z,29.10
2019-04-30T13:49:41.822Z,31.60
2019-04-30T13:52:11.155Z,27.73
2019-04-30T13:54:41.120Z,27.40
2019-04-30T13:57:10.498Z,26.73
2019-04-30T13:59:39.802Z,31.87
2019-04-30T14:02:09.848Z,26.23
2019-04-30T14:05:01.350Z,28.63
2019-04-30T14:07:52.918Z,28.00
2019-04-30T14:10:22.694Z,32.53
2019-04-30T14:12:58.686Z,29.77
2019-04-30T14:15:29.195Z,29.57
2019-04-30T14:17:59.775Z,37.53
2019-04-30T14:20:29.138Z,29.60
2019-04-30T14:22:58.356Z,33.00
2019-04-30T14:25:27.811Z,33.27
2019-04-30T14:27:59.120Z,35.37
2019-04-30T14:30:29.237Z,38.63
2019-04-30T14:32:59.319Z,31.33
2019-04-30T14:35:28.774Z,34.00
2019-04-30T14:37:59.643Z,34.93
2019-04-30T14:40:30.596Z,37.77
2019-04-30T14:43:11.748Z,32.70
2019-04-30T14:46:03.660Z,29.73
2019-04-30T14:48:40.436Z,30.53
2019-04-30T14:51:09.752Z,33.23
2019-04-30T14:53:45.946Z,33.67
2019-04-30T14:56:43.102Z,31.13
2019-04-30T14:59:46.401Z,30.13
2019-04-30T15:02:37.475Z,30.27
2019-04-30T15:05:09.065Z,28.43
2019-04-30T15:07:39.687Z,35.67
2019-04-30T15:10:09.716Z,31.40
2019-04-30T15:12:40.051Z,29.40
2019-04-30T15:15:09.985Z,32.13
2019-04-30T15:17:41.261Z,32.47
2019-04-30T15:20:11.742Z,28.43
2019-04-30T15:22:45.819Z,32.57
2019-04-30T15:25:15.473Z,29.33
2019-04-30T15:27:49.139Z,31.00
2019-04-30T15:30:21.692Z,32.13
2019-04-30T15:32:50.669Z,28.37
2019-04-30T15:35:21.115Z,27.40
2019-04-30T15:37:52.033Z,31.83
2019-04-30T15:40:21.898Z,28.40
2019-04-30T15:42:52.922Z,28.23
2019-04-30T15:45:22.289Z,30.60
2019-04-30T15:47:51.804Z,32.10
2019-04-30T15:50:21.198Z,32.33
2019-04-30T15:52:51.195Z,35.00
2019-04-30T15:55:20.609Z,28.83
2019-04-30T15:58:09.316Z,30.03
2019-04-30T16:00:39.438Z,36.53
2019-04-30T16:03:15.651Z,27.50
2019-04-30T16:05:48.047Z,31.23
2019-04-30T16:08:45.474Z,28.47
2019-04-30T16:11:30.003Z,30.57
2019-04-30T16:14:18.752Z,51.70
2019-04-30T16:17:23.435Z,88.57
2019-04-30T16:19:52.824Z,34.70
2019-04-30T16:22:22.503Z,27.73
2019-04-30T16:24:54.474Z,33.73
2019-04-30T16:27:22.983Z,31.37
2019-04-30T16:29:52.427Z,27.80
2019-04-30T16:32:23.649Z,27.43
2019-04-30T16:34:53.209Z,28.13
2019-04-30T16:37:22.851Z,33.07
2019-04-30T16:39:52.277Z,33.63
2019-04-30T16:42:21.811Z,27.00
2019-04-30T16:44:51.188Z,27.90
2019-04-30T16:47:20.536Z,25.83
2019-04-30T16:49:49.970Z,25.07
2019-04-30T16:52:19.296Z,29.70
2019-04-30T16:54:49.775Z,24.00
2019-04-30T16:57:19.569Z,25.93
2019-04-30T16:59:49.970Z,31.13
2019-04-30T17:02:42.415Z,25.33
2019-04-30T17:05:20.397Z,26.27
2019-04-30T17:08:09.330Z,24.33
2019-04-30T17:11:03.248Z,22.17
2019-04-30T17:13:43.593Z,25.57
2019-04-30T17:16:16.218Z,23.93
2019-04-30T17:18:45.698Z,27.23
2019-04-30T17:21:15.074Z,27.60
2019-04-30T17:23:44.657Z,30.43
2019-04-30T17:26:13.914Z,28.53
2019-04-30T17:28:43.217Z,27.10
2019-04-30T17:31:13.550Z,28.80
2019-04-30T17:33:42.948Z,31.23
2019-04-30T17:36:12.327Z,32.07
2019-04-30T17:38:41.682Z,36.27
2019-04-30T17:41:11.443Z,25.13
2019-04-30T17:43:41.814Z,25.33
2019-04-30T17:46:11.565Z,29.57
2019-04-30T17:48:41.223Z,27.27
2019-04-30T17:51:10.611Z,23.60
2019-04-30T17:53:58.870Z,27.30
2019-04-30T17:56:28.346Z,30.73
2019-04-30T17:58:57.944Z,27.93
2019-04-30T18:01:27.418Z,29.37
2019-04-30T18:03:58.793Z,27.87
2019-04-30T18:06:28.674Z,34.03
2019-04-30T18:08:58.348Z,28.50
2019-04-30T18:11:29.448Z,29.43
2019-04-30T18:13:58.999Z,31.13
2019-04-30T18:16:28.714Z,33.60
2019-04-30T18:19:18.686Z,31.90
2019-04-30T18:21:52.942Z,31.67
2019-04-30T18:24:30.104Z,32.63
2019-04-30T18:27:09.532Z,36.47
2019-04-30T18:29:55.010Z,32.30
2019-04-30T18:32:26.767Z,29.27
2019-04-30T18:34:56.295Z,33.53
2019-04-30T18:37:25.871Z,36.60
2019-04-30T18:39:55.227Z,30.23
2019-04-30T18:42:24.457Z,32.47
2019-04-30T18:44:53.652Z,29.43
2019-04-30T18:47:22.824Z,28.57
2019-04-30T18:49:51.987Z,34.27
2019-04-30T18:52:21.198Z,35.20
2019-04-30T18:54:50.366Z,32.40
2019-04-30T18:57:19.590Z,33.63
2019-04-30T18:59:48.913Z,33.57
2019-04-30T19:02:18.981Z,31.07
2019-04-30T19:04:49.599Z,30.50
2019-04-30T19:07:25.544Z,32.93
2019-04-30T19:10:17.089Z,33.10
2019-04-30T19:13:11.421Z,31.43
2019-04-30T19:16:18.670Z,38.07
2019-04-30T19:18:39.077Z,41.47
2019-04-30T19:21:09.264Z,44.03
2019-04-30T19:23:39.072Z,40.47
2019-04-30T19:26:09.220Z,38.83
2019-04-30T19:28:38.743Z,32.37
2019-04-30T19:31:09.156Z,35.27
2019-04-30T19:33:39.556Z,37.83
2019-04-30T19:36:09.794Z,34.10
2019-04-30T19:38:39.284Z,42.00
2019-04-30T19:41:10.655Z,35.80
2019-04-30T19:43:39.977Z,32.90
2019-04-30T19:46:09.262Z,30.10
2019-04-30T19:48:38.821Z,34.67
2019-04-30T19:51:08.868Z,40.27
2019-04-30T19:53:39.503Z,33.97
2019-04-30T19:56:08.958Z,33.47
2019-04-30T19:58:54.409Z,36.80
2019-04-30T20:01:09.539Z,43.70
2019-04-30T20:03:40.676Z,37.33
2019-04-30T20:06:09.772Z,29.37
2019-04-30T20:08:38.950Z,35.30
2019-04-30T20:11:08.204Z,34.57
2019-04-30T20:13:37.524Z,36.23
2019-04-30T20:16:07.188Z,40.53
2019-04-30T20:18:36.332Z,34.53
2019-04-30T20:21:09.864Z,37.97
2019-04-30T20:23:39.144Z,33.90
2019-04-30T20:26:08.390Z,34.43
2019-04-30T20:28:41.483Z,37.67
2019-04-30T20:31:08.997Z,31.80
2019-04-30T20:33:39.580Z,32.50
2019-04-30T20:36:09.325Z,34.30
2019-04-30T20:38:57.962Z,33.43
2019-04-30T20:41:28.649Z,37.50
2019-04-30T20:43:58.144Z,37.93
2019-04-30T20:46:34.255Z,34.57
2019-04-30T20:48:59.306Z,37.57
2019-04-30T20:51:29.150Z,41.50
2019-04-30T20:53:59.313Z,38.07
2019-04-30T20:56:29.235Z,38.63
2019-04-30T20:59:04.107Z,37.03
2019-04-30T21:01:30.411Z,36.10
2019-04-30T21:03:59.702Z,38.10
2019-04-30T21:06:29.752Z,35.77
2019-04-30T21:09:00.148Z,36.67
2019-04-30T21:11:29.433Z,40.17
2019-04-30T21:13:59.152Z,33.80
2019-04-30T21:16:28.572Z,34.87
2019-04-30T21:18:57.983Z,39.63
2019-04-30T21:21:28.731Z,39.17
2019-04-30T21:23:58.392Z,36.73
2019-04-30T21:26:28.129Z,40.67
2019-04-30T21:29:10.396Z,41.47
2019-04-30T21:31:44.170Z,42.73
2019-04-30T21:34:25.088Z,38.47
2019-04-30T21:36:54.463Z,40.73
2019-04-30T21:39:23.850Z,41.43
2019-04-30T21:41:53.092Z,37.40
2019-04-30T21:44:22.354Z,42.83
2019-04-30T21:46:51.689Z,39.07
2019-04-30T21:49:20.868Z,41.53
2019-04-30T21:51:50.036Z,41.60
2019-04-30T21:54:19.542Z,42.07
2019-04-30T21:56:49.386Z,46.10
2019-04-30T21:59:24.402Z,39.63
2019-04-30T22:01:49.880Z,40.07
2019-04-30T22:04:19.306Z,41.90
2019-04-30T22:06:49.502Z,41.73
2019-04-30T22:09:19.674Z,43.80
2019-04-30T22:11:49.393Z,41.03
2019-04-30T22:14:19.083Z,39.73
2019-04-30T22:16:49.425Z,38.60
2019-04-30T22:19:18.809Z,35.23
2019-04-30T22:21:49.609Z,36.57
2019-04-30T22:24:19.132Z,39.83
2019-04-30T22:26:48.515Z,42.57
2019-04-30T22:29:19.161Z,41.20
2019-04-30T22:31:49.509Z,38.33
2019-04-30T22:34:18.911Z,36.57
2019-04-30T22:36:49.062Z,38.43
2019-04-30T22:39:44.031Z,34.00
2019-04-30T22:42:39.943Z,35.60
2019-04-30T22:45:18.093Z,37.90
2019-04-30T22:47:50.201Z,40.67
2019-04-30T22:50:18.524Z,44.40
2019-04-30T22:52:47.718Z,37.93
2019-04-30T22:55:17.298Z,39.00
2019-04-30T22:57:46.525Z,38.73
2019-04-30T23:00:23.119Z,40.37
2019-04-30T23:03:01.390Z,42.00
2019-04-30T23:05:30.975Z,39.90
2019-04-30T23:08:00.239Z,40.73
2019-04-30T23:10:29.487Z,37.77
2019-04-30T23:12:58.668Z,40.17
2019-04-30T23:15:28.053Z,40.57
2019-04-30T23:17:57.324Z,41.57
2019-04-30T23:20:26.871Z,43.90
2019-04-30T23:22:56.457Z,38.03
2019-04-30T23:25:25.685Z,44.33
2019-04-30T23:27:55.282Z,36.77
2019-04-30T23:30:24.543Z,38.67
2019-04-30T23:32:53.803Z,46.03
2019-04-30T23:35:23.465Z,41.67
2019-04-30T23:37:52.865Z,41.73
2019-04-30T23:40:27.458Z,39.47
2019-04-30T23:42:57.397Z,43.33
2019-04-30T23:45:29.333Z,45.63
2019-04-30T23:48:01.241Z,39.07
2019-04-30T23:50:31.519Z,38.37
2019-04-30T23:53:01.200Z,37.77
2019-04-30T23:55:30.561Z,38.17
2019-04-30T23:58:00.308Z,36.77
